sensor_id;sensor_type;location;lat;lon;timestamp;pressure;altitude;pressure_sealevel;temperature;humidity
5755;BME280;2902;42.130;24.732;2023-12-20T00:01:40;99914.38;;;3.71;95.45
5755;BME280;2902;42.130;24.732;2023-12-20T00:04:07;99918.50;;;3.83;95.74
5755;BME280;2902;42.130;24.732;2023-12-20T00:06:33;99916.13;;;3.90;95.75
5755;BME280;2902;42.130;24.732;2023-12-20T00:09:00;99929.78;;;3.93;94.93
5755;BME280;2902;42.130;24.732;2023-12-20T00:11:27;99915.75;;;3.85;94.51
5755;BME280;2902;42.130;24.732;2023-12-20T00:13:54;99913.50;;;3.90;94.90
5755;BME280;2902;42.130;24.732;2023-12-20T00:16:20;99907.41;;;3.89;94.67
5755;BME280;2902;42.130;24.732;2023-12-20T00:18:48;99901.88;;;3.92;94.41
5755;BME280;2902;42.130;24.732;2023-12-20T00:21:15;99913.75;;;3.96;94.59
5755;BME280;2902;42.130;24.732;2023-12-20T00:23:42;99922.47;;;3.97;94.54
5755;BME280;2902;42.130;24.732;2023-12-20T00:26:08;99920.53;;;3.89;93.67
5755;BME280;2902;42.130;24.732;2023-12-20T00:28:35;99916.03;;;3.82;94.44
5755;BME280;2902;42.130;24.732;2023-12-20T00:31:02;99909.38;;;3.87;94.77
5755;BME280;2902;42.130;24.732;2023-12-20T00:33:29;99897.22;;;3.86;93.17
5755;BME280;2902;42.130;24.732;2023-12-20T00:35:57;99903.13;;;3.88;92.85
5755;BME280;2902;42.130;24.732;2023-12-20T00:38:24;99879.19;;;3.91;92.72
5755;BME280;2902;42.130;24.732;2023-12-20T00:40:51;99888.06;;;3.90;92.98
5755;BME280;2902;42.130;24.732;2023-12-20T00:43:18;99884.47;;;3.91;92.68
5755;BME280;2902;42.130;24.732;2023-12-20T00:45:44;99884.75;;;3.88;93.04
5755;BME280;2902;42.130;24.732;2023-12-20T00:48:11;99876.84;;;3.88;93.74
5755;BME280;2902;42.130;24.732;2023-12-20T00:50:38;99873.25;;;3.89;94.09
5755;BME280;2902;42.130;24.732;2023-12-20T00:53:06;99871.81;;;3.77;93.87
5755;BME280;2902;42.130;24.732;2023-12-20T00:55:33;99874.34;;;3.60;94.08
5755;BME280;2902;42.130;24.732;2023-12-20T00:57:59;99866.63;;;3.39;94.57
5755;BME280;2902;42.130;24.732;2023-12-20T01:00:26;99859.94;;;3.18;95.90
5755;BME280;2902;42.130;24.732;2023-12-20T01:02:53;99851.75;;;3.11;95.76
5755;BME280;2902;42.130;24.732;2023-12-20T01:05:19;99866.13;;;3.07;96.14
5755;BME280;2902;42.130;24.732;2023-12-20T01:07:48;99859.50;;;3.03;97.54
5755;BME280;2902;42.130;24.732;2023-12-20T01:10:16;99834.25;;;3.02;97.93
5755;BME280;2902;42.130;24.732;2023-12-20T01:12:43;99845.00;;;3.18;98.15
5755;BME280;2902;42.130;24.732;2023-12-20T01:15:09;99845.00;;;3.18;96.96
5755;BME280;2902;42.130;24.732;2023-12-20T01:17:36;99829.66;;;3.23;97.82
5755;BME280;2902;42.130;24.732;2023-12-20T01:20:04;99833.38;;;3.30;97.19
5755;BME280;2902;42.130;24.732;2023-12-20T01:22:31;99830.19;;;3.36;97.45
5755;BME280;2902;42.130;24.732;2023-12-20T01:24:58;99832.50;;;3.39;97.70
5755;BME280;2902;42.130;24.732;2023-12-20T01:27:26;99826.84;;;3.44;97.46
5755;BME280;2902;42.130;24.732;2023-12-20T01:29:52;99815.22;;;3.46;96.97
5755;BME280;2902;42.130;24.732;2023-12-20T01:32:19;99814.63;;;3.52;97.15
5755;BME280;2902;42.130;24.732;2023-12-20T01:34:46;99821.56;;;3.53;96.06
5755;BME280;2902;42.130;24.732;2023-12-20T01:37:13;99819.88;;;3.52;95.80
5755;BME280;2902;42.130;24.732;2023-12-20T01:39:40;99811.09;;;3.44;96.31
5755;BME280;2902;42.130;24.732;2023-12-20T01:42:07;99813.56;;;3.45;95.94
5755;BME280;2902;42.130;24.732;2023-12-20T01:44:35;99811.47;;;3.49;96.56
5755;BME280;2902;42.130;24.732;2023-12-20T01:47:02;99807.75;;;3.51;95.93
5755;BME280;2902;42.130;24.732;2023-12-20T01:49:28;99804.97;;;3.53;96.13
5755;BME280;2902;42.130;24.732;2023-12-20T01:51:56;99803.56;;;3.58;95.91
5755;BME280;2902;42.130;24.732;2023-12-20T01:54:23;99804.94;;;3.62;95.94
5755;BME280;2902;42.130;24.732;2023-12-20T01:56:50;99799.69;;;3.62;95.17
5755;BME280;2902;42.130;24.732;2023-12-20T01:59:19;99793.84;;;3.68;95.48
5755;BME280;2902;42.130;24.732;2023-12-20T02:01:48;99788.91;;;3.65;95.90
5755;BME280;2902;42.130;24.732;2023-12-20T02:04:15;99784.31;;;3.67;94.51
5755;BME280;2902;42.130;24.732;2023-12-20T02:06:43;99786.94;;;3.67;94.03
5755;BME280;2902;42.130;24.732;2023-12-20T02:09:12;99779.19;;;3.66;94.42
5755;BME280;2902;42.130;24.732;2023-12-20T02:11:39;99775.59;;;3.67;94.00
5755;BME280;2902;42.130;24.732;2023-12-20T02:14:06;99775.47;;;3.68;93.87
5755;BME280;2902;42.130;24.732;2023-12-20T02:16:33;99770.91;;;3.70;94.40
5755;BME280;2902;42.130;24.732;2023-12-20T02:19:03;99767.28;;;3.71;94.43
5755;BME280;2902;42.130;24.732;2023-12-20T02:21:33;99762.88;;;3.72;93.89
5755;BME280;2902;42.130;24.732;2023-12-20T02:24:00;99772.53;;;3.71;93.85
5755;BME280;2902;42.130;24.732;2023-12-20T02:26:27;99764.13;;;3.68;93.64
5755;BME280;2902;42.130;24.732;2023-12-20T02:28:54;99767.88;;;3.65;94.48
5755;BME280;2902;42.130;24.732;2023-12-20T02:31:21;99752.28;;;3.64;94.59
5755;BME280;2902;42.130;24.732;2023-12-20T02:33:48;99755.44;;;3.67;94.25
5755;BME280;2902;42.130;24.732;2023-12-20T02:36:14;99759.03;;;3.66;93.44
5755;BME280;2902;42.130;24.732;2023-12-20T02:38:42;99756.03;;;3.61;92.71
5755;BME280;2902;42.130;24.732;2023-12-20T02:41:09;99758.78;;;3.60;93.69
5755;BME280;2902;42.130;24.732;2023-12-20T02:43:36;99757.28;;;3.57;93.22
5755;BME280;2902;42.130;24.732;2023-12-20T02:46:03;99742.78;;;3.53;93.28
5755;BME280;2902;42.130;24.732;2023-12-20T02:48:29;99748.56;;;3.57;93.27
5755;BME280;2902;42.130;24.732;2023-12-20T02:50:56;99737.81;;;3.50;93.59
5755;BME280;2902;42.130;24.732;2023-12-20T02:53:23;99735.84;;;3.52;93.75
5755;BME280;2902;42.130;24.732;2023-12-20T02:55:51;99734.50;;;3.48;93.86
5755;BME280;2902;42.130;24.732;2023-12-20T02:58:17;99727.06;;;3.44;94.14
5755;BME280;2902;42.130;24.732;2023-12-20T03:00:44;99735.38;;;3.39;95.25
5755;BME280;2902;42.130;24.732;2023-12-20T03:03:11;99732.09;;;3.37;94.16
5755;BME280;2902;42.130;24.732;2023-12-20T03:05:37;99729.84;;;3.42;93.41
5755;BME280;2902;42.130;24.732;2023-12-20T03:08:05;99725.25;;;3.44;92.63
5755;BME280;2902;42.130;24.732;2023-12-20T03:10:32;99721.69;;;3.45;93.79
5755;BME280;2902;42.130;24.732;2023-12-20T03:13:00;99722.34;;;3.47;93.51
5755;BME280;2902;42.130;24.732;2023-12-20T03:15:27;99720.41;;;3.49;93.63
5755;BME280;2902;42.130;24.732;2023-12-20T03:17:53;99724.56;;;3.52;93.19
5755;BME280;2902;42.130;24.732;2023-12-20T03:20:20;99726.25;;;3.43;93.20
5755;BME280;2902;42.130;24.732;2023-12-20T03:22:47;99721.31;;;3.40;92.16
5755;BME280;2902;42.130;24.732;2023-12-20T03:25:13;99718.50;;;3.42;92.50
5755;BME280;2902;42.130;24.732;2023-12-20T03:27:40;99717.69;;;3.41;92.43
5755;BME280;2902;42.130;24.732;2023-12-20T03:30:09;99713.25;;;3.42;91.72
5755;BME280;2902;42.130;24.732;2023-12-20T03:32:36;99711.75;;;3.39;92.07
5755;BME280;2902;42.130;24.732;2023-12-20T03:35:04;99709.81;;;3.41;92.12
5755;BME280;2902;42.130;24.732;2023-12-20T03:37:31;99705.38;;;3.42;91.88
5755;BME280;2902;42.130;24.732;2023-12-20T03:39:58;99701.69;;;3.35;92.34
5755;BME280;2902;42.130;24.732;2023-12-20T03:42:24;99697.97;;;3.37;93.46
5755;BME280;2902;42.130;24.732;2023-12-20T03:44:51;99693.97;;;3.33;93.92
5755;BME280;2902;42.130;24.732;2023-12-20T03:47:19;99697.56;;;3.32;93.20
5755;BME280;2902;42.130;24.732;2023-12-20T03:49:46;99694.94;;;3.32;93.53
5755;BME280;2902;42.130;24.732;2023-12-20T03:52:13;99704.19;;;3.36;93.28
5755;BME280;2902;42.130;24.732;2023-12-20T03:54:39;99700.59;;;3.37;92.92
5755;BME280;2902;42.130;24.732;2023-12-20T03:57:07;99710.09;;;3.38;93.04
5755;BME280;2902;42.130;24.732;2023-12-20T03:59:36;99698.97;;;3.27;92.12
5755;BME280;2902;42.130;24.732;2023-12-20T04:02:03;99706.72;;;3.28;92.63
5755;BME280;2902;42.130;24.732;2023-12-20T04:04:32;99708.06;;;3.32;93.03
5755;BME280;2902;42.130;24.732;2023-12-20T04:06:58;99695.75;;;3.33;93.01
5755;BME280;2902;42.130;24.732;2023-12-20T04:09:25;99700.88;;;3.34;93.29
5755;BME280;2902;42.130;24.732;2023-12-20T04:11:52;99688.03;;;3.31;93.11
5755;BME280;2902;42.130;24.732;2023-12-20T04:14:19;99697.16;;;3.27;92.99
5755;BME280;2902;42.130;24.732;2023-12-20T04:16:45;99697.84;;;3.29;93.61
5755;BME280;2902;42.130;24.732;2023-12-20T04:19:12;99696.22;;;3.28;93.45
5755;BME280;2902;42.130;24.732;2023-12-20T04:21:40;99702.41;;;3.27;93.70
5755;BME280;2902;42.130;24.732;2023-12-20T04:24:07;99692.75;;;3.28;92.79
5755;BME280;2902;42.130;24.732;2023-12-20T04:26:33;99695.41;;;3.18;93.26
5755;BME280;2902;42.130;24.732;2023-12-20T04:29:00;99694.31;;;3.11;92.92
5755;BME280;2902;42.130;24.732;2023-12-20T04:31:27;99698.47;;;3.14;94.05
5755;BME280;2902;42.130;24.732;2023-12-20T04:33:54;99698.47;;;3.14;93.70
5755;BME280;2902;42.130;24.732;2023-12-20T04:36:20;99691.91;;;3.00;93.81
5755;BME280;2902;42.130;24.732;2023-12-20T04:38:48;99690.91;;;3.01;94.38
5755;BME280;2902;42.130;24.732;2023-12-20T04:41:15;99679.72;;;2.99;93.83
5755;BME280;2902;42.130;24.732;2023-12-20T04:43:44;99682.06;;;3.02;94.65
5755;BME280;2902;42.130;24.732;2023-12-20T04:46:11;99678.63;;;3.02;94.26
5755;BME280;2902;42.130;24.732;2023-12-20T04:48:37;99670.31;;;3.06;93.92
5755;BME280;2902;42.130;24.732;2023-12-20T04:51:04;99672.81;;;3.08;93.67
5755;BME280;2902;42.130;24.732;2023-12-20T04:53:31;99677.53;;;3.04;93.14
5755;BME280;2902;42.130;24.732;2023-12-20T04:55:59;99676.16;;;3.00;92.05
5755;BME280;2902;42.130;24.732;2023-12-20T04:58:26;99667.91;;;2.95;92.79
5755;BME280;2902;42.130;24.732;2023-12-20T05:00:52;99669.97;;;2.92;93.75
5755;BME280;2902;42.130;24.732;2023-12-20T05:03:19;99674.78;;;2.96;93.77
5755;BME280;2902;42.130;24.732;2023-12-20T05:05:46;99665.94;;;2.97;93.62
5755;BME280;2902;42.130;24.732;2023-12-20T05:08:13;99654.06;;;2.93;93.40
5755;BME280;2902;42.130;24.732;2023-12-20T05:10:40;99660.16;;;2.94;92.89
5755;BME280;2902;42.130;24.732;2023-12-20T05:13:09;99657.69;;;2.92;92.33
5755;BME280;2902;42.130;24.732;2023-12-20T05:15:36;99653.41;;;2.91;92.15
5755;BME280;2902;42.130;24.732;2023-12-20T05:18:03;99654.91;;;2.94;93.11
5755;BME280;2902;42.130;24.732;2023-12-20T05:20:30;99651.59;;;2.92;92.92
5755;BME280;2902;42.130;24.732;2023-12-20T05:22:56;99652.44;;;2.92;92.39
5755;BME280;2902;42.130;24.732;2023-12-20T05:25:23;99649.94;;;2.91;92.89
5755;BME280;2902;42.130;24.732;2023-12-20T05:27:50;99643.88;;;2.90;92.32
5755;BME280;2902;42.130;24.732;2023-12-20T05:30:18;99649.25;;;2.89;92.05
5755;BME280;2902;42.130;24.732;2023-12-20T05:32:45;99642.50;;;2.86;92.54
5755;BME280;2902;42.130;24.732;2023-12-20T05:35:12;99632.00;;;2.86;93.10
5755;BME280;2902;42.130;24.732;2023-12-20T05:37:39;99632.31;;;2.83;92.63
5755;BME280;2902;42.130;24.732;2023-12-20T05:40:06;99633.56;;;2.79;92.13
5755;BME280;2902;42.130;24.732;2023-12-20T05:42:35;99628.75;;;2.75;93.74
5755;BME280;2902;42.130;24.732;2023-12-20T05:45:02;99632.06;;;2.77;93.17
5755;BME280;2902;42.130;24.732;2023-12-20T05:47:30;99617.13;;;2.77;93.66
5755;BME280;2902;42.130;24.732;2023-12-20T05:49:57;99620.75;;;2.76;93.94
5755;BME280;2902;42.130;24.732;2023-12-20T05:52:24;99620.47;;;2.79;93.91
5755;BME280;2902;42.130;24.732;2023-12-20T05:54:50;99623.75;;;2.81;93.10
5755;BME280;2902;42.130;24.732;2023-12-20T05:57:17;99609.00;;;2.80;93.86
5755;BME280;2902;42.130;24.732;2023-12-20T05:59:44;99619.88;;;2.85;93.04
5755;BME280;2902;42.130;24.732;2023-12-20T06:02:11;99616.97;;;2.88;94.13
5755;BME280;2902;42.130;24.732;2023-12-20T06:04:41;99615.72;;;2.92;93.81
5755;BME280;2902;42.130;24.732;2023-12-20T06:07:11;99621.47;;;2.96;93.43
5755;BME280;2902;42.130;24.732;2023-12-20T06:09:38;99614.06;;;2.91;92.89
5755;BME280;2902;42.130;24.732;2023-12-20T06:12:05;99601.38;;;2.87;94.52
5755;BME280;2902;42.130;24.732;2023-12-20T06:14:32;99614.84;;;3.01;94.46
5755;BME280;2902;42.130;24.732;2023-12-20T06:16:58;99618.41;;;3.10;93.57
5755;BME280;2902;42.130;24.732;2023-12-20T06:19:26;99619.31;;;3.18;93.43
5755;BME280;2902;42.130;24.732;2023-12-20T06:21:54;99620.66;;;3.22;92.94
5755;BME280;2902;42.130;24.732;2023-12-20T06:24:21;99618.41;;;3.27;93.98
5755;BME280;2902;42.130;24.732;2023-12-20T06:26:48;99603.97;;;3.41;93.64
5755;BME280;2902;42.130;24.732;2023-12-20T06:29:15;99614.50;;;3.58;94.01
5755;BME280;2902;42.130;24.732;2023-12-20T06:31:41;99608.88;;;3.71;92.77
5755;BME280;2902;42.130;24.732;2023-12-20T06:34:08;99610.56;;;3.97;93.41
5755;BME280;2902;42.130;24.732;2023-12-20T06:36:35;99613.41;;;4.21;92.73
5755;BME280;2902;42.130;24.732;2023-12-20T06:39:03;99612.81;;;4.27;91.23
5755;BME280;2902;42.130;24.732;2023-12-20T06:41:30;99618.25;;;4.51;93.09
5755;BME280;2902;42.130;24.732;2023-12-20T06:43:57;99623.59;;;4.67;89.61
5755;BME280;2902;42.130;24.732;2023-12-20T06:46:24;99619.09;;;4.85;90.69
5755;BME280;2902;42.130;24.732;2023-12-20T06:48:50;99620.38;;;5.15;88.11
5755;BME280;2902;42.130;24.732;2023-12-20T06:51:17;99601.53;;;5.35;88.28
5755;BME280;2902;42.130;24.732;2023-12-20T06:53:45;99626.66;;;5.79;83.83
5755;BME280;2902;42.130;24.732;2023-12-20T06:56:13;99621.09;;;5.99;83.56
5755;BME280;2902;42.130;24.732;2023-12-20T06:58:40;99613.53;;;6.28;81.93
5755;BME280;2902;42.130;24.732;2023-12-20T07:01:11;99620.75;;;6.58;81.35
5755;BME280;2902;42.130;24.732;2023-12-20T07:03:37;99630.91;;;6.85;79.39
5755;BME280;2902;42.130;24.732;2023-12-20T07:06:04;99626.53;;;7.16;78.81
5755;BME280;2902;42.130;24.732;2023-12-20T07:08:31;99630.84;;;7.47;78.32
5755;BME280;2902;42.130;24.732;2023-12-20T07:10:58;99623.56;;;7.80;76.16
5755;BME280;2902;42.130;24.732;2023-12-20T07:13:26;99629.78;;;8.09;74.63
5755;BME280;2902;42.130;24.732;2023-12-20T07:15:52;99627.69;;;8.27;74.15
5755;BME280;2902;42.130;24.732;2023-12-20T07:18:19;99623.00;;;8.52;72.56
5755;BME280;2902;42.130;24.732;2023-12-20T07:20:46;99616.84;;;8.74;71.33
5755;BME280;2902;42.130;24.732;2023-12-20T07:23:13;99624.72;;;8.96;69.76
5755;BME280;2902;42.130;24.732;2023-12-20T07:25:40;99634.56;;;9.17;67.62
5755;BME280;2902;42.130;24.732;2023-12-20T07:28:06;99622.44;;;9.08;69.07
5755;BME280;2902;42.130;24.732;2023-12-20T07:30:34;99616.47;;;9.35;70.20
5755;BME280;2902;42.130;24.732;2023-12-20T07:33:01;99615.41;;;9.65;68.60
5755;BME280;2902;42.130;24.732;2023-12-20T07:35:28;99608.72;;;9.90;65.86
5755;BME280;2902;42.130;24.732;2023-12-20T07:37:55;99611.66;;;10.16;65.72
5755;BME280;2902;42.130;24.732;2023-12-20T07:40:22;99610.66;;;10.38;65.01
5755;BME280;2902;42.130;24.732;2023-12-20T07:42:49;99612.66;;;10.63;64.57
5755;BME280;2902;42.130;24.732;2023-12-20T07:45:16;99620.53;;;10.78;62.66
5755;BME280;2902;42.130;24.732;2023-12-20T07:47:44;99605.94;;;10.95;62.93
5755;BME280;2902;42.130;24.732;2023-12-20T07:50:11;99612.59;;;11.12;61.79
5755;BME280;2902;42.130;24.732;2023-12-20T07:52:37;99598.72;;;11.23;60.87
5755;BME280;2902;42.130;24.732;2023-12-20T07:55:05;99590.22;;;11.47;60.15
5755;BME280;2902;42.130;24.732;2023-12-20T07:57:31;99591.97;;;11.61;59.13
5755;BME280;2902;42.130;24.732;2023-12-20T07:59:58;99579.09;;;11.71;59.65
5755;BME280;2902;42.130;24.732;2023-12-20T08:02:25;99579.72;;;11.73;58.68
5755;BME280;2902;42.130;24.732;2023-12-20T08:04:53;99575.19;;;11.67;59.23
5755;BME280;2902;42.130;24.732;2023-12-20T08:07:20;99577.19;;;11.52;58.13
5755;BME280;2902;42.130;24.732;2023-12-20T08:09:46;99573.88;;;11.50;59.80
5755;BME280;2902;42.130;24.732;2023-12-20T08:12:13;99572.13;;;11.64;59.79
5755;BME280;2902;42.130;24.732;2023-12-20T08:14:42;99551.22;;;11.67;58.81
5755;BME280;2902;42.130;24.732;2023-12-20T08:17:09;99571.56;;;12.01;58.49
5755;BME280;2902;42.130;24.732;2023-12-20T08:19:35;99546.97;;;12.05;57.86
5755;BME280;2902;42.130;24.732;2023-12-20T08:22:03;99569.94;;;12.39;57.19
5755;BME280;2902;42.130;24.732;2023-12-20T08:24:30;99569.13;;;12.51;56.75
5755;BME280;2902;42.130;24.732;2023-12-20T08:26:57;99569.53;;;12.48;56.29
5755;BME280;2902;42.130;24.732;2023-12-20T08:29:23;99557.63;;;12.64;56.42
5755;BME280;2902;42.130;24.732;2023-12-20T08:31:52;99553.47;;;12.81;55.95
5755;BME280;2902;42.130;24.732;2023-12-20T08:34:19;99542.38;;;12.90;56.40
5755;BME280;2902;42.130;24.732;2023-12-20T08:36:46;99543.34;;;13.15;55.92
5755;BME280;2902;42.130;24.732;2023-12-20T08:39:14;99539.72;;;13.03;54.22
5755;BME280;2902;42.130;24.732;2023-12-20T08:41:41;99531.16;;;12.62;56.09
5755;BME280;2902;42.130;24.732;2023-12-20T08:44:08;99528.97;;;12.14;56.60
5755;BME280;2902;42.130;24.732;2023-12-20T08:46:34;99509.31;;;11.69;59.43
5755;BME280;2902;42.130;24.732;2023-12-20T08:49:01;99504.25;;;11.27;60.04
5755;BME280;2902;42.130;24.732;2023-12-20T08:51:28;99501.63;;;10.86;62.66
5755;BME280;2902;42.130;24.732;2023-12-20T08:53:55;99493.75;;;10.59;63.91
5755;BME280;2902;42.130;24.732;2023-12-20T08:56:23;99490.00;;;10.47;64.34
5755;BME280;2902;42.130;24.732;2023-12-20T08:58:50;99479.38;;;10.47;64.14
5755;BME280;2902;42.130;24.732;2023-12-20T09:01:16;99479.97;;;10.49;64.31
5755;BME280;2902;42.130;24.732;2023-12-20T09:03:43;99468.25;;;10.37;63.77
5755;BME280;2902;42.130;24.732;2023-12-20T09:06:10;99464.09;;;10.21;65.64
5755;BME280;2902;42.130;24.732;2023-12-20T09:08:36;99455.84;;;10.10;67.21
5755;BME280;2902;42.130;24.732;2023-12-20T09:11:03;99455.97;;;10.02;66.52
5755;BME280;2902;42.130;24.732;2023-12-20T09:13:31;99450.44;;;9.97;66.74
5755;BME280;2902;42.130;24.732;2023-12-20T09:15:58;99437.34;;;9.95;67.14
5755;BME280;2902;42.130;24.732;2023-12-20T09:18:25;99434.38;;;10.05;67.27
5755;BME280;2902;42.130;24.732;2023-12-20T09:20:51;99429.31;;;10.10;66.90
5755;BME280;2902;42.130;24.732;2023-12-20T09:23:18;99430.56;;;10.14;67.05
5755;BME280;2902;42.130;24.732;2023-12-20T09:25:45;99418.38;;;10.26;66.82
5755;BME280;2902;42.130;24.732;2023-12-20T09:28:12;99415.63;;;10.47;65.24
5755;BME280;2902;42.130;24.732;2023-12-20T09:30:40;99430.91;;;10.79;64.22
5755;BME280;2902;42.130;24.732;2023-12-20T09:33:07;99433.03;;;11.03;63.48
5755;BME280;2902;42.130;24.732;2023-12-20T09:35:34;99429.00;;;11.27;61.74
5755;BME280;2902;42.130;24.732;2023-12-20T09:38:01;99420.81;;;11.41;61.44
5755;BME280;2902;42.130;24.732;2023-12-20T09:40:29;99409.34;;;11.41;60.95
5755;BME280;2902;42.130;24.732;2023-12-20T09:43:03;99407.28;;;11.23;61.08
5755;BME280;2902;42.130;24.732;2023-12-20T09:45:30;99406.09;;;11.26;62.12
5755;BME280;2902;42.130;24.732;2023-12-20T09:47:58;99398.13;;;11.32;61.89
5755;BME280;2902;42.130;24.732;2023-12-20T09:50:25;99387.47;;;11.52;60.30
5755;BME280;2902;42.130;24.732;2023-12-20T09:52:53;99386.69;;;11.84;58.95
5755;BME280;2902;42.130;24.732;2023-12-20T09:55:21;99382.78;;;11.99;58.64
5755;BME280;2902;42.130;24.732;2023-12-20T09:57:48;99383.53;;;12.19;58.31
5755;BME280;2902;42.130;24.732;2023-12-20T10:00:16;99376.53;;;12.31;57.30
5755;BME280;2902;42.130;24.732;2023-12-20T10:02:47;99375.50;;;12.32;56.42
5755;BME280;2902;42.130;24.732;2023-12-20T10:05:17;99366.69;;;12.45;56.12
5755;BME280;2902;42.130;24.732;2023-12-20T10:07:45;99364.28;;;12.30;57.14
5755;BME280;2902;42.130;24.732;2023-12-20T10:10:13;99348.75;;;12.14;58.24
5755;BME280;2902;42.130;24.732;2023-12-20T10:12:40;99348.31;;;12.17;57.82
5755;BME280;2902;42.130;24.732;2023-12-20T10:15:07;99343.31;;;12.40;57.84
5755;BME280;2902;42.130;24.732;2023-12-20T10:17:35;99339.09;;;12.64;57.13
5755;BME280;2902;42.130;24.732;2023-12-20T10:20:03;99343.91;;;12.86;56.80
5755;BME280;2902;42.130;24.732;2023-12-20T10:22:36;99330.47;;;12.68;56.47
5755;BME280;2902;42.130;24.732;2023-12-20T10:25:04;99320.91;;;12.54;57.31
5755;BME280;2902;42.130;24.732;2023-12-20T10:27:31;99316.06;;;12.45;57.26
5755;BME280;2902;42.130;24.732;2023-12-20T10:29:58;99313.03;;;12.28;57.25
5755;BME280;2902;42.130;24.732;2023-12-20T10:32:26;99306.50;;;12.24;56.72
5755;BME280;2902;42.130;24.732;2023-12-20T10:34:54;99311.81;;;12.31;56.44
5755;BME280;2902;42.130;24.732;2023-12-20T10:37:21;99308.06;;;12.45;55.60
5755;BME280;2902;42.130;24.732;2023-12-20T10:39:51;99305.13;;;12.59;58.18
5755;BME280;2902;42.130;24.732;2023-12-20T10:42:21;99293.97;;;12.75;55.56
5755;BME280;2902;42.130;24.732;2023-12-20T10:44:49;99284.66;;;12.84;55.23
5755;BME280;2902;42.130;24.732;2023-12-20T10:47:17;99278.22;;;12.98;55.86
5755;BME280;2902;42.130;24.732;2023-12-20T10:49:44;99259.72;;;13.03;54.74
5755;BME280;2902;42.130;24.732;2023-12-20T10:52:12;99275.19;;;13.19;54.64
5755;BME280;2902;42.130;24.732;2023-12-20T10:54:39;99269.44;;;13.22;53.89
5755;BME280;2902;42.130;24.732;2023-12-20T10:57:08;99261.59;;;13.27;54.13
5755;BME280;2902;42.130;24.732;2023-12-20T10:59:36;99260.84;;;13.20;53.36
5755;BME280;2902;42.130;24.732;2023-12-20T11:02:04;99251.72;;;13.03;54.10
5755;BME280;2902;42.130;24.732;2023-12-20T11:04:47;99240.88;;;12.74;55.44
5755;BME280;2902;42.130;24.732;2023-12-20T11:07:21;99237.81;;;12.70;55.55
5755;BME280;2902;42.130;24.732;2023-12-20T11:09:56;99230.84;;;12.69;55.31
5755;BME280;2902;42.130;24.732;2023-12-20T11:12:34;99226.44;;;12.50;55.61
5755;BME280;2902;42.130;24.732;2023-12-20T11:15:02;99224.78;;;12.25;56.08
5755;BME280;2902;42.130;24.732;2023-12-20T11:17:31;99222.91;;;12.25;56.27
5755;BME280;2902;42.130;24.732;2023-12-20T11:20:06;99208.22;;;12.16;55.90
5755;BME280;2902;42.130;24.732;2023-12-20T11:22:35;99212.91;;;12.21;56.21
5755;BME280;2902;42.130;24.732;2023-12-20T11:25:04;99214.25;;;12.36;54.47
5755;BME280;2902;42.130;24.732;2023-12-20T11:27:35;99192.53;;;12.39;54.73
5755;BME280;2902;42.130;24.732;2023-12-20T11:30:03;99206.28;;;12.67;54.87
5755;BME280;2902;42.130;24.732;2023-12-20T11:32:33;99197.56;;;12.78;53.19
5755;BME280;2902;42.130;24.732;2023-12-20T11:35:01;99190.50;;;12.90;53.96
5755;BME280;2902;42.130;24.732;2023-12-20T11:37:42;99197.81;;;13.01;51.67
5755;BME280;2902;42.130;24.732;2023-12-20T11:40:12;99183.44;;;13.02;52.42
5755;BME280;2902;42.130;24.732;2023-12-20T11:42:43;99190.34;;;13.10;52.28
5755;BME280;2902;42.130;24.732;2023-12-20T11:45:10;99186.00;;;13.15;52.44
5755;BME280;2902;42.130;24.732;2023-12-20T11:47:40;99184.66;;;13.24;51.25
5755;BME280;2902;42.130;24.732;2023-12-20T11:50:07;99169.66;;;12.81;51.79
5755;BME280;2902;42.130;24.732;2023-12-20T11:52:35;99168.41;;;12.83;52.25
5755;BME280;2902;42.130;24.732;2023-12-20T11:55:01;99170.06;;;12.84;51.92
5755;BME280;2902;42.130;24.732;2023-12-20T11:57:29;99161.16;;;12.90;51.98
5755;BME280;2902;42.130;24.732;2023-12-20T11:59:57;99158.94;;;12.87;52.14
5755;BME280;2902;42.130;24.732;2023-12-20T12:02:24;99146.13;;;13.02;51.72
5755;BME280;2902;42.130;24.732;2023-12-20T12:04:51;99145.25;;;13.08;51.78
5755;BME280;2902;42.130;24.732;2023-12-20T12:07:17;99141.56;;;13.09;51.59
5755;BME280;2902;42.130;24.732;2023-12-20T12:09:45;99132.50;;;13.10;52.41
5755;BME280;2902;42.130;24.732;2023-12-20T12:12:12;99139.19;;;12.95;52.33
5755;BME280;2902;42.130;24.732;2023-12-20T12:14:39;99127.13;;;12.92;52.43
5755;BME280;2902;42.130;24.732;2023-12-20T12:17:11;99122.22;;;12.65;53.51
5755;BME280;2902;42.130;24.732;2023-12-20T12:19:39;99121.03;;;12.61;53.55
5755;BME280;2902;42.130;24.732;2023-12-20T12:22:06;99122.69;;;12.62;53.79
5755;BME280;2902;42.130;24.732;2023-12-20T12:24:35;99117.78;;;12.59;54.13
5755;BME280;2902;42.130;24.732;2023-12-20T12:27:02;99114.91;;;12.60;53.43
5755;BME280;2902;42.130;24.732;2023-12-20T12:29:30;99115.06;;;12.65;53.38
5755;BME280;2902;42.130;24.732;2023-12-20T12:31:56;99114.03;;;12.66;53.74
5755;BME280;2902;42.130;24.732;2023-12-20T12:34:27;99112.19;;;12.67;53.54
5755;BME280;2902;42.130;24.732;2023-12-20T12:36:55;99111.16;;;12.68;53.89
5755;BME280;2902;42.130;24.732;2023-12-20T12:39:23;99105.81;;;12.68;54.03
5755;BME280;2902;42.130;24.732;2023-12-20T12:41:50;99087.16;;;12.68;54.21
5755;BME280;2902;42.130;24.732;2023-12-20T12:44:17;99096.69;;;12.82;54.04
5755;BME280;2902;42.130;24.732;2023-12-20T12:46:44;99094.53;;;12.90;54.02
5755;BME280;2902;42.130;24.732;2023-12-20T12:49:10;99096.16;;;12.91;54.25
5755;BME280;2902;42.130;24.732;2023-12-20T12:51:39;99092.28;;;12.87;53.60
5755;BME280;2902;42.130;24.732;2023-12-20T12:54:05;99087.56;;;12.89;54.02
5755;BME280;2902;42.130;24.732;2023-12-20T12:56:32;99076.09;;;12.89;54.18
5755;BME280;2902;42.130;24.732;2023-12-20T12:58:59;99082.16;;;12.96;54.49
5755;BME280;2902;42.130;24.732;2023-12-20T13:01:26;99078.09;;;12.93;55.47
5755;BME280;2902;42.130;24.732;2023-12-20T13:03:53;99082.38;;;12.94;55.87
5755;BME280;2902;42.130;24.732;2023-12-20T13:06:19;99083.78;;;12.97;55.11
5755;BME280;2902;42.130;24.732;2023-12-20T13:08:48;99079.91;;;12.99;54.65
5755;BME280;2902;42.130;24.732;2023-12-20T13:11:14;99078.41;;;13.03;54.62
5755;BME280;2902;42.130;24.732;2023-12-20T13:13:41;99079.25;;;13.04;54.68
5755;BME280;2902;42.130;24.732;2023-12-20T13:16:08;99082.50;;;13.06;54.24
5755;BME280;2902;42.130;24.732;2023-12-20T13:18:35;99067.31;;;13.06;54.07